createdAt,value
2018-12-31T00:00:06.621Z,97.33
2018-12-31T00:01:06.641Z,97.78
2018-12-31T00:02:06.653Z,97.99
2018-12-31T00:03:06.611Z,97.78
2018-12-31T00:04:06.582Z,97.47
2018-12-31T00:05:06.574Z,97.47
2018-12-31T00:06:06.572Z,97.58
2018-12-31T00:07:06.560Z,97.68
2018-12-31T00:08:06.574Z,98.51
2018-12-31T00:09:06.532Z,97.78
2018-12-31T00:10:06.521Z,97.89
2018-12-31T00:11:06.498Z,97.93
2018-12-31T00:12:06.497Z,97.89
2018-12-31T00:13:06.549Z,98.61
2018-12-31T00:14:06.468Z,98.51
2018-12-31T00:15:06.466Z,98.82
2018-12-31T00:16:06.461Z,98.51
2018-12-31T00:17:06.453Z,98.55
2018-12-31T00:18:06.425Z,98.82
2018-12-31T00:19:06.440Z,98.61
2018-12-31T00:20:06.410Z,98.82
2018-12-31T00:21:06.402Z,98.97
2018-12-31T00:22:06.402Z,99.38
2018-12-31T00:23:06.369Z,99.03
2018-12-31T00:24:06.392Z,98.93
2018-12-31T00:25:06.351Z,99.03
2018-12-31T00:26:06.340Z,99.28
2018-12-31T00:27:06.354Z,99.03
2018-12-31T00:28:06.340Z,98.82
2018-12-31T00:29:06.310Z,99.07
2018-12-31T00:30:06.334Z,99.07
2018-12-31T00:31:06.282Z,98.93
2018-12-31T00:32:06.281Z,99.44
2018-12-31T00:33:06.274Z,99.03
2018-12-31T00:34:06.258Z,99.13
2018-12-31T00:35:06.251Z,99.24
2018-12-31T00:36:06.246Z,98.61
2018-12-31T00:37:06.213Z,98.72
2018-12-31T00:38:06.213Z,98.61
2018-12-31T00:39:06.236Z,98.47
2018-12-31T00:40:06.199Z,98.16
2018-12-31T00:41:06.225Z,98.51
2018-12-31T00:42:06.184Z,98.61
2018-12-31T00:43:06.152Z,98.30
2018-12-31T00:44:06.142Z,98.51
2018-12-31T00:45:06.161Z,98.47
2018-12-31T00:46:06.116Z,98.16
2018-12-31T00:47:06.121Z,98.26
2018-12-31T00:48:06.110Z,98.41
2018-12-31T00:49:06.084Z,97.95
2018-12-31T00:50:06.073Z,97.85
2018-12-31T00:51:06.096Z,97.95
2018-12-31T00:52:06.061Z,97.74
2018-12-31T00:53:06.071Z,97.95
2018-12-31T00:54:06.051Z,97.64
2018-12-31T00:55:06.026Z,97.64
2018-12-31T00:56:06.023Z,97.95
2018-12-31T00:57:06.004Z,97.85
2018-12-31T00:58:06.007Z,97.64
2018-12-31T00:59:06.777Z,97.74
2018-12-31T01:00:05.983Z,97.64
2018-12-31T01:01:05.965Z,97.43
2018-12-31T01:02:05.966Z,98.47
2018-12-31T01:03:05.951Z,97.43
2018-12-31T01:04:05.928Z,98.16
2018-12-31T01:05:05.933Z,98.88
2018-12-31T01:06:05.909Z,98.57
2018-12-31T01:07:05.902Z,97.53
2018-12-31T01:08:05.907Z,97.33
2018-12-31T01:09:05.877Z,97.95
2018-12-31T01:10:05.856Z,98.00
2018-12-31T01:11:05.857Z,98.05
2018-12-31T01:12:05.847Z,97.43
2018-12-31T01:13:05.848Z,98.00
2018-12-31T01:14:05.820Z,98.32
2018-12-31T01:15:05.818Z,97.95
2018-12-31T01:16:05.797Z,97.64
2018-12-31T01:17:05.786Z,97.43
2018-12-31T01:18:05.800Z,97.59
2018-12-31T01:19:05.769Z,97.28
2018-12-31T01:20:05.751Z,97.53
2018-12-31T01:21:05.731Z,98.05
2018-12-31T01:22:05.727Z,97.22
2018-12-31T01:23:05.741Z,97.74
2018-12-31T01:24:05.709Z,97.33
2018-12-31T01:25:05.711Z,98.05
2018-12-31T01:26:05.687Z,97.12
2018-12-31T01:27:05.665Z,97.64
2018-12-31T01:28:05.691Z,97.43
2018-12-31T01:29:05.644Z,98.05
2018-12-31T01:30:05.637Z,98.47
2018-12-31T01:31:05.629Z,97.95
2018-12-31T01:32:05.635Z,97.33
2018-12-31T01:33:05.636Z,97.17
2018-12-31T01:34:05.614Z,97.17
2018-12-31T01:35:05.580Z,97.80
2018-12-31T01:36:05.584Z,98.11
2018-12-31T01:37:05.624Z,98.11
2018-12-31T01:38:05.578Z,98.00
2018-12-31T01:39:05.539Z,97.69
2018-12-31T01:40:05.532Z,97.28
2018-12-31T01:41:05.551Z,97.17
2018-12-31T01:42:05.501Z,97.90
2018-12-31T01:43:05.503Z,97.38
2018-12-31T01:44:05.495Z,97.28
2018-12-31T01:45:05.487Z,97.17
2018-12-31T01:46:05.479Z,97.69
2018-12-31T01:47:05.485Z,97.07
2018-12-31T01:48:05.439Z,97.28
2018-12-31T01:49:05.485Z,97.07
2018-12-31T01:50:05.461Z,96.86
2018-12-31T01:51:11.276Z,97.17
2018-12-31T01:52:06.411Z,97.07
2018-12-31T01:53:05.383Z,96.97
2018-12-31T01:54:05.373Z,96.97
2018-12-31T01:55:05.381Z,96.55
2018-12-31T01:56:05.386Z,96.97
2018-12-31T01:57:05.372Z,96.97
2018-12-31T01:58:05.339Z,96.92
2018-12-31T01:59:05.316Z,97.28
2018-12-31T02:00:05.324Z,96.86
2018-12-31T02:01:05.298Z,96.97
2018-12-31T02:02:05.307Z,96.76
2018-12-31T02:03:05.280Z,96.61
2018-12-31T02:04:05.293Z,96.92
2018-12-31T02:05:05.265Z,96.82
2018-12-31T02:06:05.278Z,96.82
2018-12-31T02:07:05.242Z,97.03
2018-12-31T02:08:05.223Z,96.82
2018-12-31T02:09:05.231Z,96.92
2018-12-31T02:10:05.206Z,96.82
2018-12-31T02:11:05.204Z,96.61
2018-12-31T02:12:05.180Z,96.61
2018-12-31T02:13:05.168Z,96.61
2018-12-31T02:14:05.154Z,96.61
2018-12-31T02:15:05.149Z,96.30
2018-12-31T02:16:05.172Z,97.13
2018-12-31T02:17:05.133Z,96.92
2018-12-31T02:18:05.122Z,96.61
2018-12-31T02:19:05.104Z,96.92
2018-12-31T02:20:05.088Z,96.61
2018-12-31T02:21:05.099Z,95.89
2018-12-31T02:22:05.064Z,96.20
2018-12-31T02:23:05.061Z,96.41
2018-12-31T02:24:05.062Z,97.13
2018-12-31T02:25:05.041Z,96.82
2018-12-31T02:26:05.049Z,96.72
2018-12-31T02:27:05.042Z,96.92
2018-12-31T02:28:05.018Z,96.82
2018-12-31T02:29:05.003Z,96.82
2018-12-31T02:30:04.996Z,96.82
2018-12-31T02:31:05.001Z,96.82
2018-12-31T02:32:04.955Z,96.72
2018-12-31T02:33:04.957Z,97.07
2018-12-31T02:34:04.947Z,97.07
2018-12-31T02:35:04.940Z,97.03
2018-12-31T02:36:04.956Z,98.00
2018-12-31T02:37:04.912Z,97.86
2018-12-31T02:38:04.906Z,98.21
2018-12-31T02:39:04.883Z,98.21
2018-12-31T02:40:04.881Z,96.97
2018-12-31T02:41:04.882Z,97.69
2018-12-31T02:42:04.886Z,97.80
2018-12-31T02:43:04.836Z,97.80
2018-12-31T02:44:04.856Z,98.00
2018-12-31T02:45:04.817Z,97.44
2018-12-31T02:46:04.878Z,97.44
2018-12-31T02:47:04.804Z,97.75
2018-12-31T02:48:04.820Z,97.65
2018-12-31T02:49:04.785Z,97.24
2018-12-31T02:50:04.777Z,97.44
2018-12-31T02:51:04.750Z,97.13
2018-12-31T02:52:04.743Z,97.34
2018-12-31T02:53:04.740Z,96.72
2018-12-31T02:54:04.743Z,96.92
2018-12-31T02:55:04.723Z,96.92
2018-12-31T02:56:04.717Z,96.82
2018-12-31T02:57:04.684Z,96.82
2018-12-31T02:58:04.707Z,96.67
2018-12-31T02:59:04.677Z,96.67
2018-12-31T03:00:04.662Z,96.72
2018-12-31T03:01:04.648Z,96.92
2018-12-31T03:02:04.638Z,96.98
2018-12-31T03:03:04.619Z,97.19
2018-12-31T03:04:04.644Z,97.24
2018-12-31T03:05:04.618Z,96.92
2018-12-31T03:06:04.590Z,97.13
2018-12-31T03:07:04.593Z,96.92
2018-12-31T03:08:04.593Z,96.82
2018-12-31T03:09:04.566Z,96.98
2018-12-31T03:10:04.572Z,97.34
2018-12-31T03:11:04.541Z,96.88
2018-12-31T03:12:04.538Z,96.57
2018-12-31T03:13:04.527Z,96.47
2018-12-31T03:14:04.541Z,96.98
2018-12-31T03:15:04.500Z,97.13
2018-12-31T03:16:04.480Z,97.19
2018-12-31T03:17:04.469Z,96.78
2018-12-31T03:18:04.465Z,96.92
2018-12-31T03:19:04.474Z,97.09
2018-12-31T03:20:04.446Z,96.88
2018-12-31T03:21:04.449Z,97.29
2018-12-31T03:22:04.417Z,97.19
2018-12-31T03:23:04.406Z,96.92
2018-12-31T03:24:04.420Z,96.78
2018-12-31T03:25:04.383Z,96.88
2018-12-31T03:26:04.373Z,96.26
2018-12-31T03:27:04.370Z,96.67
2018-12-31T03:28:04.359Z,96.88
2018-12-31T03:29:04.378Z,96.78
2018-12-31T03:30:04.340Z,96.88
2018-12-31T03:31:04.324Z,96.98
2018-12-31T03:32:04.318Z,96.47
2018-12-31T03:33:04.304Z,96.88
2018-12-31T03:34:04.300Z,96.88
2018-12-31T03:35:04.296Z,97.09
2018-12-31T03:36:04.265Z,96.57
2018-12-31T03:37:04.253Z,96.57
2018-12-31T03:38:04.236Z,96.57
2018-12-31T03:39:04.237Z,96.88
2018-12-31T03:40:04.248Z,97.09
2018-12-31T03:41:04.240Z,96.36
2018-12-31T03:42:04.206Z,96.47
2018-12-31T03:43:04.207Z,97.29
2018-12-31T03:44:04.179Z,96.98
2018-12-31T03:45:04.165Z,97.29
2018-12-31T03:46:04.185Z,97.19
2018-12-31T03:47:04.151Z,96.47
2018-12-31T03:48:04.130Z,96.57
2018-12-31T03:49:04.119Z,97.09
2018-12-31T03:50:04.108Z,96.78
2018-12-31T03:51:04.115Z,96.67
2018-12-31T03:52:04.123Z,96.67
2018-12-31T03:53:04.087Z,96.78
2018-12-31T03:54:04.079Z,96.67
2018-12-31T03:55:04.054Z,96.78
2018-12-31T03:56:04.043Z,96.67
2018-12-31T03:57:04.033Z,97.71
2018-12-31T03:58:04.043Z,97.29
2018-12-31T03:59:04.018Z,96.67
2018-12-31T04:00:04.025Z,96.88
2018-12-31T04:01:03.991Z,96.98
2018-12-31T04:02:03.998Z,96.67
2018-12-31T04:03:03.978Z,96.57
2018-12-31T04:04:03.999Z,96.57
2018-12-31T04:05:03.961Z,96.78
2018-12-31T04:06:03.948Z,96.88
2018-12-31T04:07:03.922Z,96.67
2018-12-31T04:08:03.937Z,96.57
2018-12-31T04:09:03.908Z,96.57
2018-12-31T04:10:03.890Z,96.57
2018-12-31T04:11:03.895Z,96.88
2018-12-31T04:12:03.904Z,97.29
2018-12-31T04:13:03.889Z,96.98
2018-12-31T04:14:03.854Z,97.03
2018-12-31T04:15:03.843Z,97.13
2018-12-31T04:16:03.864Z,96.88
2018-12-31T04:17:03.824Z,96.67
2018-12-31T04:18:03.818Z,96.30
2018-12-31T04:19:03.823Z,96.98
2018-12-31T04:20:03.779Z,97.13
2018-12-31T04:21:03.788Z,97.29
2018-12-31T04:22:03.753Z,97.44
2018-12-31T04:23:03.768Z,98.22
2018-12-31T04:24:03.761Z,97.60
2018-12-31T04:25:03.775Z,97.09
2018-12-31T04:26:03.717Z,96.98
2018-12-31T04:27:03.708Z,96.88
2018-12-31T04:28:03.697Z,97.03
2018-12-31T04:29:03.686Z,96.57
2018-12-31T04:30:03.671Z,97.09
2018-12-31T04:31:03.693Z,97.29
2018-12-31T04:32:03.669Z,97.91
2018-12-31T04:33:03.643Z,97.71
2018-12-31T04:34:03.709Z,97.81
2018-12-31T04:35:03.639Z,97.55
2018-12-31T04:36:03.617Z,97.09
2018-12-31T04:37:03.626Z,97.65
2018-12-31T04:38:03.597Z,97.03
2018-12-31T04:39:03.574Z,98.27
2018-12-31T04:40:03.591Z,97.19
2018-12-31T04:41:03.551Z,97.29
2018-12-31T04:42:03.545Z,97.24
2018-12-31T04:43:03.549Z,97.71
2018-12-31T04:44:03.535Z,97.29
2018-12-31T04:45:03.528Z,98.22
2018-12-31T04:46:03.529Z,97.29
2018-12-31T04:47:03.487Z,98.85
2018-12-31T04:48:03.500Z,98.22
2018-12-31T04:49:03.481Z,97.29
2018-12-31T04:50:03.481Z,97.09
2018-12-31T04:51:03.442Z,97.71
2018-12-31T04:52:03.452Z,97.09
2018-12-31T04:53:03.440Z,97.09
2018-12-31T04:54:03.428Z,97.71
2018-12-31T04:55:03.438Z,97.19
2018-12-31T04:56:03.401Z,97.91
2018-12-31T04:57:03.381Z,97.81
2018-12-31T04:58:03.432Z,98.22
2018-12-31T04:59:03.351Z,97.19
2018-12-31T05:00:03.354Z,97.19
2018-12-31T05:01:03.353Z,97.75
2018-12-31T05:02:03.324Z,98.64
2018-12-31T05:03:03.330Z,97.19
2018-12-31T05:04:03.331Z,97.55
2018-12-31T05:05:03.287Z,97.65
2018-12-31T05:06:03.349Z,97.39
2018-12-31T05:07:03.287Z,97.91
2018-12-31T05:08:03.263Z,97.50
2018-12-31T05:09:03.259Z,97.50
2018-12-31T05:10:03.269Z,97.60
2018-12-31T05:11:03.224Z,97.71
2018-12-31T05:12:03.217Z,97.81
2018-12-31T05:13:03.210Z,97.91
2018-12-31T05:14:03.189Z,97.81
2018-12-31T05:15:03.217Z,97.50
2018-12-31T05:16:03.174Z,97.60
2018-12-31T05:17:03.171Z,98.22
2018-12-31T05:18:03.172Z,98.02
2018-12-31T05:19:03.146Z,98.12
2018-12-31T05:20:03.150Z,98.33
2018-12-31T05:21:03.126Z,98.33
2018-12-31T05:22:03.122Z,98.33
2018-12-31T05:23:03.120Z,98.33
2018-12-31T05:24:03.103Z,98.33
2018-12-31T05:25:03.111Z,98.54
2018-12-31T05:26:03.068Z,98.12
2018-12-31T05:27:03.065Z,98.33
2018-12-31T05:28:03.047Z,98.43
2018-12-31T05:29:03.053Z,98.33
2018-12-31T05:30:03.027Z,98.12
2018-12-31T05:31:03.029Z,98.85
2018-12-31T05:32:03.005Z,98.85
2018-12-31T05:33:02.987Z,98.70
2018-12-31T05:34:02.974Z,98.12
2018-12-31T05:35:03.014Z,98.33
2018-12-31T05:36:02.961Z,98.08
2018-12-31T05:37:03.009Z,98.08
2018-12-31T05:38:02.931Z,98.08
2018-12-31T05:39:02.948Z,98.60
2018-12-31T05:40:02.923Z,98.08
2018-12-31T05:41:02.930Z,98.08
2018-12-31T05:42:02.905Z,98.28
2018-12-31T05:43:02.895Z,98.39
2018-12-31T05:44:02.869Z,98.60
2018-12-31T05:45:02.883Z,98.18
2018-12-31T05:46:02.852Z,98.60
2018-12-31T05:47:02.860Z,98.60
2018-12-31T05:48:02.833Z,98.39
2018-12-31T05:49:02.820Z,98.18
2018-12-31T05:50:02.817Z,98.39
2018-12-31T05:51:02.824Z,98.39
2018-12-31T05:52:02.777Z,98.28
2018-12-31T05:53:02.779Z,98.28
2018-12-31T05:54:02.772Z,98.28
2018-12-31T05:55:02.747Z,97.97
2018-12-31T05:56:02.734Z,98.18
2018-12-31T05:57:02.743Z,97.97
2018-12-31T05:58:02.713Z,97.97
2018-12-31T05:59:02.734Z,98.08
2018-12-31T06:00:02.710Z,98.08
2018-12-31T06:01:02.689Z,98.18
2018-12-31T06:02:02.696Z,98.18
2018-12-31T06:03:02.657Z,98.08
2018-12-31T06:04:02.655Z,97.56
2018-12-31T06:05:02.633Z,97.87
2018-12-31T06:06:02.633Z,97.66
2018-12-31T06:07:02.656Z,98.18
2018-12-31T06:08:02.621Z,98.39
2018-12-31T06:09:02.593Z,98.03
2018-12-31T06:10:02.589Z,98.13
2018-12-31T06:11:02.591Z,97.87
2018-12-31T06:12:02.571Z,97.31
2018-12-31T06:13:02.585Z,97.52
2018-12-31T06:14:02.555Z,97.72
2018-12-31T06:15:02.530Z,97.72
2018-12-31T06:16:02.515Z,97.93
2018-12-31T06:17:02.513Z,98.18
2018-12-31T06:18:02.516Z,98.44
2018-12-31T06:19:02.503Z,97.62
2018-12-31T06:20:02.483Z,97.41
2018-12-31T06:21:02.473Z,97.41
2018-12-31T06:22:02.461Z,97.52
2018-12-31T06:23:02.464Z,97.31
2018-12-31T06:24:02.429Z,97.41
2018-12-31T06:25:02.440Z,97.52
2018-12-31T06:26:02.416Z,97.72
2018-12-31T06:27:02.399Z,97.72
2018-12-31T06:28:02.420Z,97.62
2018-12-31T06:29:02.388Z,97.52
2018-12-31T06:30:02.563Z,98.13
2018-12-31T06:31:02.367Z,97.83
2018-12-31T06:32:02.353Z,98.03
2018-12-31T06:33:02.340Z,97.72
2018-12-31T06:34:02.361Z,97.52
2018-12-31T06:35:02.325Z,97.62
2018-12-31T06:36:02.308Z,97.72
2018-12-31T06:37:02.291Z,97.83
2018-12-31T06:38:02.357Z,97.93
2018-12-31T06:39:02.282Z,97.93
2018-12-31T06:40:02.263Z,98.44
2018-12-31T06:41:02.242Z,97.99
2018-12-31T06:42:02.238Z,98.13
2018-12-31T06:43:02.241Z,97.52
2018-12-31T06:44:02.260Z,98.13
2018-12-31T06:45:02.210Z,98.03
2018-12-31T06:46:02.196Z,98.13
2018-12-31T06:47:02.265Z,98.03
2018-12-31T06:48:02.180Z,97.83
2018-12-31T06:49:02.184Z,97.62
2018-12-31T06:50:02.149Z,97.52
2018-12-31T06:51:02.143Z,97.62
2018-12-31T06:52:02.138Z,97.72
2018-12-31T06:53:02.148Z,97.83
2018-12-31T06:54:02.119Z,97.52
2018-12-31T06:55:02.097Z,97.62
2018-12-31T06:56:02.082Z,97.62
2018-12-31T06:57:02.078Z,97.62
2018-12-31T06:58:02.093Z,97.62
2018-12-31T06:59:02.049Z,97.83
2018-12-31T07:00:02.041Z,97.41
2018-12-31T07:01:02.037Z,97.52
2018-12-31T07:02:02.022Z,97.67
2018-12-31T07:03:02.034Z,97.52
2018-12-31T07:04:02.015Z,99.02
2018-12-31T07:05:01.995Z,97.41
2018-12-31T07:06:02.027Z,97.26
2018-12-31T07:07:01.958Z,97.47
2018-12-31T07:08:01.953Z,97.47
2018-12-31T07:09:01.941Z,97.57
2018-12-31T07:10:01.932Z,97.36
2018-12-31T07:11:01.927Z,97.78
2018-12-31T07:12:02.368Z,97.67
2018-12-31T07:13:01.900Z,97.78
2018-12-31T07:14:01.887Z,98.71
2018-12-31T07:15:01.880Z,97.47
2018-12-31T07:16:01.873Z,97.36
2018-12-31T07:17:01.871Z,97.67
2018-12-31T07:18:01.872Z,97.57
2018-12-31T07:19:01.828Z,97.78
2018-12-31T07:20:01.816Z,97.47
2018-12-31T07:21:01.812Z,97.36
2018-12-31T07:22:01.795Z,97.16
2018-12-31T07:23:01.830Z,97.36
2018-12-31T07:24:01.785Z,97.06
2018-12-31T07:25:01.771Z,97.36
2018-12-31T07:26:01.756Z,97.26
2018-12-31T07:27:01.761Z,97.26
2018-12-31T07:28:01.730Z,97.26
2018-12-31T07:29:01.749Z,97.16
2018-12-31T07:30:01.734Z,97.26
2018-12-31T07:31:02.379Z,97.47
2018-12-31T07:32:01.691Z,97.47
2018-12-31T07:33:01.690Z,96.95
2018-12-31T07:34:01.697Z,97.78
2018-12-31T07:35:01.667Z,97.06
2018-12-31T07:36:01.840Z,97.06
2018-12-31T07:37:01.645Z,97.36
2018-12-31T07:38:01.631Z,97.47
2018-12-31T07:39:01.608Z,97.32
2018-12-31T07:40:01.637Z,97.22
2018-12-31T07:41:01.591Z,97.26
2018-12-31T07:42:01.583Z,97.57
2018-12-31T07:43:01.580Z,97.42
2018-12-31T07:44:01.565Z,97.11
2018-12-31T07:45:01.612Z,97.11
2018-12-31T07:46:01.551Z,97.84
2018-12-31T07:47:01.544Z,97.84
2018-12-31T07:48:01.528Z,97.22
2018-12-31T07:49:01.511Z,97.22
2018-12-31T07:50:01.508Z,96.91
2018-12-31T07:51:01.501Z,97.11
2018-12-31T07:52:01.476Z,97.01
2018-12-31T07:53:01.455Z,96.91
2018-12-31T07:54:01.448Z,96.91
2018-12-31T07:55:01.455Z,97.01
2018-12-31T07:56:01.463Z,97.01
2018-12-31T07:57:01.427Z,98.15
2018-12-31T07:58:01.431Z,97.84
2018-12-31T07:59:01.395Z,97.01
2018-12-31T08:00:01.387Z,96.97
2018-12-31T08:01:01.385Z,96.45
2018-12-31T08:02:01.391Z,96.39
2018-12-31T08:03:01.372Z,96.97
2018-12-31T08:04:01.345Z,96.66
2018-12-31T08:05:01.336Z,96.76
2018-12-31T08:06:01.315Z,96.97
2018-12-31T08:07:01.317Z,96.45
2018-12-31T08:08:01.321Z,97.07
2018-12-31T08:09:01.294Z,96.76
2018-12-31T08:10:01.292Z,96.86
2018-12-31T08:11:01.262Z,96.14
2018-12-31T08:12:01.253Z,96.24
2018-12-31T08:13:01.270Z,96.03
2018-12-31T08:14:01.241Z,95.37
2018-12-31T08:15:01.234Z,95.68
2018-12-31T08:16:01.218Z,95.57
2018-12-31T08:17:01.205Z,95.57
2018-12-31T08:18:01.184Z,95.37
2018-12-31T08:19:01.199Z,95.06
2018-12-31T08:20:01.175Z,95.43
2018-12-31T08:21:01.166Z,94.50
2018-12-31T08:22:01.160Z,94.50
2018-12-31T08:23:01.133Z,95.02
2018-12-31T08:24:01.143Z,94.92
2018-12-31T08:25:01.108Z,95.02
2018-12-31T08:26:01.098Z,94.40
2018-12-31T08:27:01.106Z,94.81
2018-12-31T08:28:01.080Z,94.29
2018-12-31T08:29:01.070Z,94.60
2018-12-31T08:30:01.075Z,93.57
2018-12-31T08:31:01.071Z,93.47
2018-12-31T08:32:01.055Z,93.98
2018-12-31T08:33:01.028Z,93.88
2018-12-31T08:34:01.019Z,93.68
2018-12-31T08:35:01.056Z,94.09
2018-12-31T08:36:00.990Z,93.57
2018-12-31T08:37:00.995Z,93.78
2018-12-31T08:38:00.968Z,93.37
2018-12-31T08:39:00.978Z,93.37
2018-12-31T08:40:00.958Z,93.68
2018-12-31T08:41:00.980Z,93.26
2018-12-31T08:42:00.933Z,93.47
2018-12-31T08:43:00.917Z,92.91
2018-12-31T08:44:00.905Z,93.12
2018-12-31T08:45:00.901Z,93.22
2018-12-31T08:46:00.881Z,92.60
2018-12-31T08:47:00.905Z,92.85
2018-12-31T08:48:00.940Z,92.80
2018-12-31T08:49:00.854Z,92.29
2018-12-31T08:50:02.950Z,91.98
2018-12-31T08:51:00.843Z,92.08
2018-12-31T08:52:00.825Z,92.29
2018-12-31T08:53:00.857Z,92.19
2018-12-31T08:54:00.808Z,91.83
2018-12-31T08:55:00.798Z,91.88
2018-12-31T08:56:00.773Z,91.01
2018-12-31T08:57:00.754Z,90.80
2018-12-31T08:58:00.782Z,90.80
2018-12-31T08:59:00.741Z,91.01
2018-12-31T09:00:00.805Z,91.17
2018-12-31T09:01:00.720Z,91.22
2018-12-31T09:02:01.626Z,91.38
2018-12-31T09:03:00.696Z,90.66
2018-12-31T09:04:00.709Z,90.35
2018-12-31T09:05:00.679Z,90.10
2018-12-31T09:06:00.675Z,89.07
2018-12-31T09:07:00.653Z,89.03
2018-12-31T09:08:00.649Z,88.06
2018-12-31T09:09:00.650Z,88.17
2018-12-31T09:10:00.624Z,87.13
2018-12-31T09:11:00.623Z,86.61
2018-12-31T09:12:00.610Z,86.61
2018-12-31T09:13:00.590Z,87.85
2018-12-31T09:14:00.573Z,86.79
2018-12-31T09:15:00.581Z,86.93
2018-12-31T09:16:00.554Z,86.72
2018-12-31T09:17:00.536Z,87.44
2018-12-31T09:18:00.530Z,87.03
2018-12-31T09:19:00.528Z,87.54
2018-12-31T09:20:00.536Z,87.65
2018-12-31T09:21:00.494Z,87.24
2018-12-31T09:22:00.493Z,87.44
2018-12-31T09:23:00.480Z,88.26
2018-12-31T09:24:00.473Z,87.13
2018-12-31T09:25:00.493Z,87.85
2018-12-31T09:26:00.474Z,88.26
2018-12-31T09:27:00.423Z,87.96
2018-12-31T09:28:00.411Z,87.96
2018-12-31T09:29:00.409Z,87.13
2018-12-31T09:30:00.416Z,87.09
2018-12-31T09:31:00.400Z,86.68
2018-12-31T09:32:00.376Z,86.58
2018-12-31T09:33:00.370Z,86.47
2018-12-31T09:34:00.351Z,86.58
2018-12-31T09:35:00.352Z,86.33
2018-12-31T09:36:00.337Z,86.13
2018-12-31T09:37:00.334Z,86.13
2018-12-31T09:38:00.315Z,84.99
2018-12-31T09:39:00.308Z,84.48
2018-12-31T09:40:00.314Z,85.92
2018-12-31T09:41:00.276Z,86.02
2018-12-31T09:42:00.260Z,86.13
2018-12-31T09:43:00.259Z,86.47
2018-12-31T09:44:00.251Z,86.85
2018-12-31T09:45:00.266Z,86.85
2018-12-31T09:46:00.241Z,86.85
2018-12-31T09:47:00.208Z,86.02
2018-12-31T09:48:00.191Z,86.54
2018-12-31T09:49:00.184Z,86.74
2018-12-31T09:50:00.258Z,86.27
2018-12-31T09:51:00.178Z,86.33
2018-12-31T09:52:00.156Z,86.64
2018-12-31T09:53:00.140Z,86.58
2018-12-31T09:54:00.137Z,86.54
2018-12-31T09:55:00.166Z,86.74
2018-12-31T09:56:00.114Z,86.54
2018-12-31T09:57:00.100Z,86.79
2018-12-31T09:58:00.102Z,86.79
2018-12-31T09:59:00.088Z,87.19
2018-12-31T10:00:00.155Z,87.09
2018-12-31T10:01:00.054Z,87.09
2018-12-31T10:02:00.057Z,87.60
2018-12-31T10:03:00.029Z,86.99
2018-12-31T10:04:00.025Z,88.23
2018-12-31T10:05:00.009Z,86.79
2018-12-31T10:06:00.019Z,86.85
2018-12-31T10:06:59.985Z,86.02
2018-12-31T10:07:59.991Z,86.33
2018-12-31T10:08:59.973Z,86.43
2018-12-31T10:09:59.980Z,86.23
2018-12-31T10:10:59.953Z,86.13
2018-12-31T10:11:59.954Z,86.23
2018-12-31T10:12:59.915Z,85.78
2018-12-31T10:13:59.925Z,85.98
2018-12-31T10:15:00.081Z,84.75
2018-12-31T10:15:59.899Z,84.85
2018-12-31T10:16:59.887Z,84.75
2018-12-31T10:17:59.864Z,84.81
2018-12-31T10:18:59.853Z,84.71
2018-12-31T10:20:00.181Z,84.71
2018-12-31T10:20:59.850Z,84.91
2018-12-31T10:21:59.823Z,84.40
2018-12-31T10:22:59.825Z,83.89
2018-12-31T10:23:59.801Z,84.81
2018-12-31T10:25:00.173Z,84.61
2018-12-31T10:25:59.776Z,83.89
2018-12-31T10:26:59.768Z,84.20
2018-12-31T10:27:59.761Z,83.78
2018-12-31T10:28:59.752Z,82.86
2018-12-31T10:30:00.274Z,82.41
2018-12-31T10:30:59.732Z,82.37
2018-12-31T10:31:59.735Z,82.17
2018-12-31T10:32:59.716Z,80.86
2018-12-31T10:33:59.701Z,80.31
2018-12-31T10:34:59.706Z,77.16
2018-12-31T10:35:59.673Z,75.14
2018-12-31T10:36:59.684Z,75.45
2018-12-31T10:37:59.646Z,74.69
2018-12-31T10:39:00.360Z,75.04
2018-12-31T10:39:59.637Z,74.39
2018-12-31T10:40:59.629Z,75.65
2018-12-31T10:41:59.622Z,74.49
2018-12-31T10:42:59.604Z,74.46
2018-12-31T10:43:59.587Z,75.07
2018-12-31T10:44:59.589Z,73.03
2018-12-31T10:45:59.588Z,73.33
2018-12-31T10:46:59.546Z,75.07
2018-12-31T10:47:59.545Z,74.60
2018-12-31T10:48:59.531Z,74.29
2018-12-31T10:49:59.536Z,73.30
2018-12-31T10:50:59.502Z,74.36
2018-12-31T10:51:59.538Z,76.65
2018-12-31T10:52:59.488Z,75.76
2018-12-31T10:53:59.483Z,76.17
2018-12-31T10:54:59.463Z,76.92
2018-12-31T10:55:59.457Z,77.13
2018-12-31T10:56:59.439Z,78.05
2018-12-31T10:57:59.446Z,77.13
2018-12-31T10:58:59.452Z,78.70
2018-12-31T10:59:59.419Z,76.82
2018-12-31T11:00:59.396Z,78.46
2018-12-31T11:01:59.407Z,77.33
2018-12-31T11:02:59.383Z,76.92
2018-12-31T11:03:59.383Z,78.63
2018-12-31T11:04:59.339Z,77.13
2018-12-31T11:05:59.347Z,77.13
2018-12-31T11:06:59.343Z,76.65
2018-12-31T11:07:59.307Z,77.37
2018-12-31T11:08:59.370Z,78.29
2018-12-31T11:09:59.307Z,77.33
2018-12-31T11:10:59.284Z,76.72
2018-12-31T11:11:59.290Z,75.11
2018-12-31T11:12:59.281Z,73.30
2018-12-31T11:13:59.255Z,71.56
2018-12-31T11:14:59.397Z,69.15
2018-12-31T11:15:59.801Z,69.96
2018-12-31T11:16:59.228Z,69.59
2018-12-31T11:17:59.223Z,69.93
2018-12-31T11:18:59.203Z,70.16
2018-12-31T11:19:59.230Z,70.67
2018-12-31T11:20:59.198Z,70.81
2018-12-31T11:21:59.155Z,71.94
2018-12-31T11:22:59.199Z,71.97
2018-12-31T11:23:59.181Z,73.16
2018-12-31T11:24:59.133Z,74.15
2018-12-31T11:25:59.121Z,74.36
2018-12-31T11:26:59.110Z,72.82
2018-12-31T11:27:59.134Z,73.33
2018-12-31T11:28:59.075Z,73.95
2018-12-31T11:29:59.064Z,73.06
2018-12-31T11:30:59.057Z,73.47
2018-12-31T11:31:59.061Z,73.47
2018-12-31T11:32:59.059Z,73.16
2018-12-31T11:33:59.042Z,74.80
2018-12-31T11:34:59.021Z,74.08
2018-12-31T11:35:59.003Z,73.23
2018-12-31T11:36:59.014Z,74.56
2018-12-31T11:37:59.006Z,73.36
2018-12-31T11:38:58.984Z,75.11
2018-12-31T11:39:58.957Z,75.11
2018-12-31T11:40:58.945Z,75.31
2018-12-31T11:41:58.950Z,74.80
2018-12-31T11:42:58.965Z,74.84
2018-12-31T11:43:58.921Z,75.18
2018-12-31T11:44:58.922Z,75.90
2018-12-31T11:45:58.907Z,77.54
2018-12-31T11:46:58.931Z,77.03
2018-12-31T11:47:58.887Z,76.82
2018-12-31T11:48:58.875Z,77.03
2018-12-31T11:49:59.736Z,77.17
2018-12-31T11:50:58.840Z,76.96
2018-12-31T11:51:58.828Z,77.06
2018-12-31T11:52:58.824Z,79.01
2018-12-31T11:53:58.819Z,79.32
2018-12-31T11:54:58.792Z,79.22
2018-12-31T11:55:58.788Z,77.68
2018-12-31T11:56:58.778Z,77.06
2018-12-31T11:57:58.806Z,78.60
2018-12-31T11:58:58.749Z,77.37
2018-12-31T11:59:58.746Z,78.12
2018-12-31T12:00:58.737Z,78.39
2018-12-31T12:01:58.719Z,78.85
2018-12-31T12:02:58.725Z,78.64
2018-12-31T12:03:58.724Z,77.81
2018-12-31T12:04:58.712Z,78.23
2018-12-31T12:05:58.670Z,78.64
2018-12-31T12:06:58.674Z,78.60
2018-12-31T12:07:58.655Z,77.47
2018-12-31T12:08:58.907Z,77.17
2018-12-31T12:09:59.611Z,78.25
2018-12-31T12:10:58.638Z,77.13
2018-12-31T12:11:58.614Z,76.72
2018-12-31T12:12:58.594Z,77.09
2018-12-31T12:13:58.576Z,76.48
2018-12-31T12:14:58.608Z,76.20
2018-12-31T12:15:58.574Z,76.58
2018-12-31T12:16:58.563Z,75.15
2018-12-31T12:17:58.623Z,75.08
2018-12-31T12:18:58.551Z,75.66
2018-12-31T12:19:58.553Z,76.10
2018-12-31T12:20:58.509Z,76.51
2018-12-31T12:21:58.490Z,76.82
2018-12-31T12:22:58.479Z,76.82
2018-12-31T12:23:58.525Z,76.72
2018-12-31T12:24:58.467Z,76.65
2018-12-31T12:25:58.488Z,77.03
2018-12-31T12:26:58.439Z,76.31
2018-12-31T12:27:58.441Z,77.03
2018-12-31T12:28:58.417Z,77.47
2018-12-31T12:29:58.414Z,77.64
2018-12-31T12:30:58.423Z,76.82
2018-12-31T12:31:58.394Z,76.62
2018-12-31T12:32:58.379Z,77.13
2018-12-31T12:33:58.373Z,76.92
2018-12-31T12:34:58.357Z,78.25
2018-12-31T12:35:58.371Z,77.58
2018-12-31T12:36:58.335Z,77.78
2018-12-31T12:37:58.345Z,78.70
2018-12-31T12:38:58.316Z,78.56
2018-12-31T12:39:58.311Z,76.65
2018-12-31T12:40:58.316Z,77.23
2018-12-31T12:41:58.277Z,76.62
2018-12-31T12:42:58.367Z,76.86
2018-12-31T12:43:58.261Z,78.70
2018-12-31T12:44:58.246Z,79.73
2018-12-31T12:45:58.258Z,78.94
2018-12-31T12:46:58.217Z,79.05
2018-12-31T12:47:58.240Z,79.46
2018-12-31T12:48:58.199Z,78.53
2018-12-31T12:49:58.193Z,80.18
2018-12-31T12:50:58.185Z,79.66
2018-12-31T12:51:58.191Z,79.66